Time;durP1;ratioP1;P1;durP2;ratioP2;P2;SDS_P1;SDS_P2;PMS_P1;PMS_P2;Temp;Humidity;BMP_temperature;BMP_pressure;BME280_temperature;BME280_humidity;BME280_pressure;Samples;Min_cycle;Max_cycle;Signal;HPM_P1;HPM_P2
2024/03/13 00:02:02;;;;;;;7.20;4.82;;;0.70;73.90;;;;;;4977625;28;20091;-81
2024/03/13 00:04:34;;;;;;;7.38;3.95;;;0.70;73.80;;;;;;4979297;28;20103;-82
2024/03/13 00:07:01;;;;;;;6.57;4.20;;;0.70;73.90;;;;;;4976697;28;20023;-82
2024/03/13 00:09:26;;;;;;;8.73;5.18;;;0.70;73.90;;;;;;4970480;28;20031;-82
2024/03/13 00:11:52;;;;;;;8.52;5.82;;;0.70;74.10;;;;;;4973688;28;20106;-82
2024/03/13 00:14:18;;;;;;;12.43;4.97;;;0.60;74.00;;;;;;4964238;28;20035;-82
2024/03/13 00:16:44;;;;;;;7.55;4.68;;;0.60;74.00;;;;;;4977944;28;20043;-82
2024/03/13 00:19:10;;;;;;;6.07;4.53;;;0.60;74.10;;;;;;4979238;28;20022;-84
2024/03/13 00:21:43;;;;;;;7.82;5.28;;;0.60;74.10;;;;;;4977102;28;20069;-83
2024/03/13 00:24:09;;;;;;;8.90;4.72;;;0.50;74.10;;;;;;4971608;28;20027;-82
2024/03/13 00:26:35;;;;;;;13.65;5.32;;;0.50;74.10;;;;;;4970271;28;20408;-81
2024/03/13 00:29:04;;;;;;;10.98;4.75;;;0.50;74.10;;;;;;4972698;28;20034;-80
2024/03/13 00:31:29;;;;;;;5.05;3.97;;;0.50;74.10;;;;;;4976465;28;20027;-82
2024/03/13 00:33:55;;;;;;;4.95;4.13;;;0.50;74.10;;;;;;4975571;28;20035;-84
2024/03/13 00:36:21;;;;;;;8.98;5.40;;;0.50;74.10;;;;;;4980520;28;20019;-82
2024/03/13 00:38:47;;;;;;;6.25;4.60;;;0.40;74.20;;;;;;4985538;28;20082;-82
2024/03/13 00:41:13;;;;;;;7.90;4.47;;;0.40;74.20;;;;;;4977603;28;20105;-81
2024/03/13 00:43:39;;;;;;;11.50;4.63;;;0.40;74.20;;;;;;4972096;28;20058;-81
2024/03/13 00:46:05;;;;;;;8.95;4.20;;;0.30;74.20;;;;;;4963752;28;20426;-81
2024/03/13 00:48:32;;;;;;;12.50;4.90;;;0.30;74.30;;;;;;4972582;28;20034;-83
2024/03/13 00:51:00;;;;;;;10.75;5.13;;;0.30;74.40;;;;;;4974416;28;20077;-82
2024/03/13 00:53:27;;;;;;;8.27;4.15;;;0.30;75.10;;;;;;4975494;28;20404;-81
2024/03/13 00:55:55;;;;;;;6.43;4.40;;;0.30;74.50;;;;;;4975102;28;20396;-82
2024/03/13 00:58:21;;;;;;;;;;;0.30;74.60;;;;;;4977506;28;20257;-82
2024/03/13 01:00:48;;;;;;;8.55;5.63;;;0.20;74.40;;;;;;4976429;28;19961;-82
2024/03/13 01:03:14;;;;;;;4.93;3.67;;;0.20;74.40;;;;;;4976592;28;20069;-82
2024/03/13 01:05:40;;;;;;;6.95;3.75;;;0.20;74.60;;;;;;4975542;28;20031;-84
2024/03/13 01:08:06;;;;;;;10.30;4.40;;;0.20;74.70;;;;;;4975590;28;20019;-83
2024/03/13 01:10:32;;;;;;;8.65;4.82;;;0.20;74.70;;;;;;4975982;28;20074;-82
2024/03/13 01:12:59;;;;;;;8.57;4.75;;;0.20;74.70;;;;;;4974115;28;20077;-83
2024/03/13 01:15:24;;;;;;;7.65;5.18;;;0.20;74.80;;;;;;4975191;28;20484;-82
2024/03/13 01:17:50;;;;;;;4.93;4.05;;;0.20;74.80;;;;;;4977587;28;20043;-81
2024/03/13 01:20:18;;;;;;;9.40;4.25;;;0.10;74.80;;;;;;4977846;28;20019;-83
2024/03/13 01:22:47;;;;;;;10.13;3.90;;;0.20;74.80;;;;;;4972078;28;20019;-82
2024/03/13 01:25:14;;;;;;;7.38;3.90;;;0.10;74.90;;;;;;4973985;28;20388;-82
2024/03/13 01:27:43;;;;;;;8.45;4.28;;;0.10;75.20;;;;;;4976359;28;20451;-82
2024/03/13 01:30:11;;;;;;;5.95;4.20;;;0.10;75.20;;;;;;4973702;28;20026;-82
2024/03/13 01:32:38;;;;;;;9.57;4.30;;;0.10;75.20;;;;;;4975256;28;20049;-83
2024/03/13 01:35:04;;;;;;;7.40;4.10;;;0.10;75.30;;;;;;4965636;28;20552;-82
2024/03/13 01:40:19;;;;;;;9.75;4.97;;;0.00;75.20;;;;;;4974878;28;20575;-81
2024/03/13 01:57:02;;;;;;;5.05;3.80;;;-0.10;75.30;;;;;;4976940;28;20090;-81
2024/03/13 01:59:48;;;;;;;7.82;3.85;;;-0.10;75.10;;;;;;4964873;28;20314;-83
2024/03/13 02:02:24;;;;;;;6.30;3.88;;;0.00;75.00;;;;;;4974502;28;20420;-80
2024/03/13 02:04:51;;;;;;;10.00;3.88;;;0.00;74.80;;;;;;4974774;28;20023;-83
2024/03/13 02:07:18;;;;;;;8.55;4.68;;;0.00;74.70;;;;;;4974658;28;20453;-84
2024/03/13 02:09:45;;;;;;;7.20;3.97;;;0.00;74.70;;;;;;4974368;28;20437;-81
2024/03/13 02:12:11;;;;;;;7.57;4.75;;;-0.10;74.60;;;;;;4969086;28;20523;-81
2024/03/13 02:14:38;;;;;;;4.32;3.92;;;-0.10;74.50;;;;;;4967675;28;20034;-83
2024/03/13 02:17:06;;;;;;;6.45;4.03;;;-0.10;74.50;;;;;;4973935;28;20041;-82
2024/03/13 02:19:35;;;;;;;7.50;3.80;;;-0.10;74.60;;;;;;4973850;28;20029;-81
2024/03/13 02:22:01;;;;;;;7.45;3.97;;;-0.20;74.70;;;;;;4972702;28;20034;-82
2024/03/13 02:24:27;;;;;;;7.33;3.47;;;-0.10;74.80;;;;;;4973890;28;20030;-81
2024/03/13 02:26:53;;;;;;;7.05;3.40;;;-0.20;74.70;;;;;;4972066;28;20018;-81
2024/03/13 02:29:19;;;;;;;7.63;3.30;;;-0.20;74.90;;;;;;4964583;28;20035;-81
2024/03/13 02:31:45;;;;;;;5.72;3.67;;;-0.20;74.90;;;;;;4975265;28;20061;-83
2024/03/13 02:34:11;;;;;;;10.40;3.38;;;-0.20;75.00;;;;;;4972162;28;20035;-81
2024/03/13 02:36:36;;;;;;;5.10;3.45;;;-0.20;75.00;;;;;;4973351;28;20089;-80
2024/03/13 02:39:02;;;;;;;9.10;3.67;;;-0.30;75.00;;;;;;4977806;28;20027;-82
2024/03/13 02:41:28;;;;;;;5.30;3.17;;;-0.30;75.00;;;;;;4971582;28;20101;-81
2024/03/13 02:43:57;;;;;;;4.40;3.13;;;-0.30;75.00;;;;;;4976109;28;20398;-81
2024/03/13 02:46:23;;;;;;;6.00;3.35;;;-0.30;74.90;;;;;;4982585;28;20090;-81
2024/03/13 02:48:49;;;;;;;4.28;2.90;;;-0.30;75.50;;;;;;4974861;28;20027;-83
2024/03/13 02:51:15;;;;;;;6.47;3.03;;;-0.30;74.90;;;;;;4975502;28;20025;-82
2024/03/13 02:53:41;;;;;;;9.43;3.58;;;-0.30;75.00;;;;;;4975265;28;20115;-81
2024/03/13 02:56:10;;;;;;;6.80;3.35;;;-0.30;75.10;;;;;;4974382;28;20019;-82
2024/03/13 02:58:36;;;;;;;5.05;2.97;;;-0.30;75.10;;;;;;4972835;28;20583;-82
2024/03/13 03:01:02;;;;;;;5.05;3.30;;;-0.40;75.10;;;;;;4970579;28;20038;-80
2024/03/13 03:03:30;;;;;;;7.25;3.08;;;-0.40;75.30;;;;;;4967526;28;20046;-82
2024/03/13 03:05:56;;;;;;;7.70;4.15;;;-0.40;75.30;;;;;;4972272;28;20101;-82
2024/03/13 03:08:22;;;;;;;8.13;4.20;;;-0.40;75.30;;;;;;4973766;28;20034;-83
2024/03/13 03:10:48;;;;;;;3.75;2.90;;;-0.40;75.40;;;;;;4972361;28;20031;-84
2024/03/13 03:13:14;;;;;;;6.85;3.50;;;-0.40;76.00;;;;;;4973034;28;20066;-82
2024/03/13 03:15:42;;;;;;;6.95;3.63;;;-0.40;75.30;;;;;;4973024;28;20077;-83
2024/03/13 03:18:11;;;;;;;5.18;2.88;;;-0.50;75.50;;;;;;4963949;28;20030;-83
2024/03/13 03:20:37;;;;;;;7.07;3.25;;;-0.50;75.50;;;;;;4980935;28;20023;-83
2024/03/13 03:23:03;;;;;;;6.55;3.85;;;-0.50;75.60;;;;;;4977751;28;20019;-84
2024/03/13 03:25:29;;;;;;;4.85;3.08;;;-0.60;75.60;;;;;;4975683;28;20034;-83
2024/03/13 03:27:58;;;;;;;8.70;4.22;;;-0.50;75.70;;;;;;4973603;28;20097;-83
2024/03/13 03:30:30;;;;;;;4.88;3.22;;;-0.60;75.80;;;;;;4972097;28;20102;-84
2024/03/13 03:32:56;;;;;;;4.95;3.08;;;-0.60;75.80;;;;;;4971574;28;20400;-82
2024/03/13 03:35:23;;;;;;;4.78;3.20;;;-0.60;75.80;;;;;;4972174;28;20114;-83
2024/03/13 03:37:49;;;;;;;6.25;3.78;;;-0.60;76.00;;;;;;4973554;28;20488;-81
2024/03/13 03:40:17;;;;;;;3.42;3.00;;;-0.60;76.00;;;;;;4971640;28;20027;-83
2024/03/13 03:42:43;;;;;;;7.57;4.03;;;-0.70;76.00;;;;;;4971759;28;20588;-83
2024/03/13 03:45:11;;;;;;;7.18;3.35;;;-0.70;76.10;;;;;;4972300;28;20097;-82
2024/03/13 03:47:38;;;;;;;8.90;4.03;;;-0.70;76.10;;;;;;4974341;28;20034;-83
2024/03/13 03:50:07;;;;;;;6.35;3.45;;;-0.70;76.20;;;;;;4972786;28;20026;-83
2024/03/13 03:52:34;;;;;;;6.25;3.72;;;-0.70;76.10;;;;;;4971282;28;20122;-82
2024/03/13 03:54:59;;;;;;;7.25;3.78;;;-0.60;76.10;;;;;;4972782;28;20136;-83
2024/03/13 03:57:25;;;;;;;6.78;3.72;;;-0.60;76.10;;;;;;4973144;28;20050;-86
2024/03/13 03:59:51;;;;;;;8.90;3.80;;;-0.70;76.00;;;;;;4965681;28;20033;-86
2024/03/13 04:02:18;;;;;;;5.85;3.80;;;-0.70;76.00;;;;;;4977216;28;20049;-82
2024/03/13 04:04:44;;;;;;;5.53;3.50;;;-0.60;76.20;;;;;;4962685;28;20023;-82
2024/03/13 04:07:11;;;;;;;8.45;3.42;;;-0.70;76.00;;;;;;4974899;28;20477;-84
2024/03/13 04:09:37;;;;;;;7.17;3.60;;;-0.70;76.00;;;;;;4974766;28;20033;-82
2024/03/13 04:12:03;;;;;;;7.13;4.75;;;-0.60;76.10;;;;;;4976881;28;20034;-83
2024/03/13 04:14:29;;;;;;;6.93;5.53;;;-0.60;76.10;;;;;;4972519;28;20043;-81
2024/03/13 04:16:55;;;;;;;9.00;4.65;;;-0.60;76.10;;;;;;4972399;28;20051;-82
2024/03/13 04:19:24;;;;;;;10.05;3.92;;;-0.60;76.10;;;;;;4972218;28;20074;-83
2024/03/13 04:21:50;;;;;;;11.30;4.68;;;-0.50;76.20;;;;;;4975411;28;20121;-84
2024/03/13 04:24:19;;;;;;;7.32;4.40;;;-0.50;76.10;;;;;;4976306;28;20030;-83
2024/03/13 04:26:45;;;;;;;11.80;5.30;;;-0.50;75.90;;;;;;4973316;28;20473;-83
2024/03/13 04:29:11;;;;;;;10.82;4.93;;;-0.40;75.70;;;;;;4977983;28;20019;-84
2024/03/13 04:31:39;;;;;;;6.90;4.60;;;-0.40;75.50;;;;;;4979051;28;20019;-82
2024/03/13 04:34:08;;;;;;;18.50;5.03;;;-0.30;75.40;;;;;;4978259;28;20034;-83
2024/03/13 04:36:40;;;;;;;8.73;4.90;;;-0.30;75.30;;;;;;4977935;28;20827;-83
2024/03/13 04:39:09;;;;;;;10.07;4.18;;;-0.20;75.10;;;;;;4975922;28;20023;-83
2024/03/13 04:41:39;;;;;;;8.18;4.45;;;-0.10;75.00;;;;;;4977610;28;20027;-82
2024/03/13 04:44:12;;;;;;;10.57;5.03;;;-0.10;74.80;;;;;;4974982;28;20034;-85
2024/03/13 04:46:38;;;;;;;11.15;3.95;;;-0.10;74.60;;;;;;4975406;28;20114;-84
2024/03/13 04:49:04;;;;;;;9.25;4.80;;;0.00;74.40;;;;;;4964188;28;20771;-84
2024/03/13 04:51:30;;;;;;;9.32;4.68;;;0.10;74.30;;;;;;4975778;28;20022;-84
2024/03/13 04:53:56;;;;;;;7.05;4.70;;;0.10;74.00;;;;;;4977153;28;20035;-84
2024/03/13 04:56:24;;;;;;;8.43;5.15;;;0.10;73.90;;;;;;4979917;28;20029;-81
2024/03/13 04:58:50;;;;;;;6.50;4.05;;;0.20;73.80;;;;;;4978458;28;20049;-84
2024/03/13 05:01:24;;;;;;;9.52;5.05;;;0.20;73.70;;;;;;4976262;28;20023;-85
2024/03/13 05:03:50;;;;;;;12.48;4.57;;;0.30;73.50;;;;;;4970114;28;20045;-85
2024/03/13 05:06:17;;;;;;;6.38;4.22;;;0.30;73.30;;;;;;4966232;28;20540;-83
2024/03/13 05:08:43;;;;;;;9.32;5.10;;;0.40;73.20;;;;;;4975682;28;20049;-82
2024/03/13 05:11:11;;;;;;;13.10;5.10;;;0.50;73.20;;;;;;4975941;28;20623;-84
2024/03/13 05:13:38;;;;;;;9.43;5.20;;;0.50;73.00;;;;;;4974463;28;20070;-83
2024/03/13 05:16:04;;;;;;;10.43;5.30;;;0.60;72.60;;;;;;4976020;28;20043;-84
2024/03/13 05:18:30;;;;;;;20.02;5.25;;;0.60;72.30;;;;;;4967249;28;20399;-86
2024/03/13 05:20:56;;;;;;;7.57;4.47;;;0.60;72.20;;;;;;4968815;28;20019;-86
2024/03/13 05:23:22;;;;;;;8.93;5.38;;;0.70;72.00;;;;;;4971689;28;20030;-85
2024/03/13 05:25:50;;;;;;;16.92;5.53;;;0.70;71.70;;;;;;4975056;28;20035;-84
2024/03/13 05:28:17;;;;;;;7.78;5.22;;;0.80;71.80;;;;;;4975058;28;20027;-84
2024/03/13 05:30:42;;;;;;;15.77;5.40;;;0.80;71.90;;;;;;4977858;28;20374;-85
2024/03/13 05:33:09;;;;;;;7.63;5.03;;;0.80;71.80;;;;;;4965335;28;20039;-86
2024/03/13 05:35:37;;;;;;;14.23;5.37;;;0.90;71.40;;;;;;4971786;28;20061;-85
2024/03/13 05:38:03;;;;;;;19.92;5.60;;;0.90;71.20;;;;;;4975846;28;20783;-87
2024/03/13 05:40:29;;;;;;;8.07;4.78;;;1.00;71.10;;;;;;4975014;28;20370;-85
2024/03/13 05:42:55;;;;;;;11.23;4.43;;;1.00;70.80;;;;;;4975605;28;20015;-85
2024/03/13 05:45:21;;;;;;;12.13;6.13;;;1.00;70.80;;;;;;4976353;28;20030;-85
2024/03/13 05:47:49;;;;;;;13.13;5.43;;;1.10;70.70;;;;;;4977731;28;20437;-83
2024/03/13 05:50:18;;;;;;;15.25;6.65;;;1.10;70.60;;;;;;4972275;28;20065;-86
2024/03/13 05:52:47;;;;;;;9.25;6.10;;;1.20;70.60;;;;;;4975338;28;20027;-84
2024/03/13 05:55:20;;;;;;;8.77;5.43;;;1.20;70.40;;;;;;4974591;28;20031;-86
2024/03/13 05:57:45;;;;;;;8.75;4.20;;;1.20;70.00;;;;;;4974183;28;20544;-85
2024/03/13 06:00:12;;;;;;;12.63;5.53;;;1.20;69.70;;;;;;4975953;28;20053;-87
2024/03/13 06:02:41;;;;;;;8.82;5.22;;;1.30;69.80;;;;;;4972366;28;20703;-85
2024/03/13 06:05:17;;;;;;;20.55;6.65;;;1.30;69.70;;;;;;4973694;28;20031;-87
2024/03/13 06:07:43;;;;;;;10.43;5.18;;;1.30;69.60;;;;;;4978145;28;20019;-84
2024/03/13 06:10:12;;;;;;;13.70;6.78;;;1.30;69.40;;;;;;4981063;28;20023;-85
2024/03/13 06:12:38;;;;;;;13.27;5.63;;;1.40;69.60;;;;;;4976865;28;20200;-81
2024/03/13 06:15:12;;;;;;;14.38;5.88;;;1.30;69.50;;;;;;4974927;28;20106;-84
2024/03/13 06:17:38;;;;;;;10.07;5.28;;;1.40;69.50;;;;;;4974641;28;20074;-87
2024/03/13 06:20:12;;;;;;;10.55;6.03;;;1.40;69.40;;;;;;4980335;28;20491;-86
2024/03/13 06:22:40;;;;;;;9.52;5.40;;;1.40;69.00;;;;;;4984920;28;20033;-83
2024/03/13 06:25:07;;;;;;;9.75;5.35;;;1.50;68.90;;;;;;4986980;28;20015;-84
2024/03/13 06:27:36;;;;;;;15.25;6.28;;;1.50;68.70;;;;;;4981028;28;20488;-84
2024/03/13 06:30:03;;;;;;;13.05;6.88;;;1.50;68.50;;;;;;4974572;28;20045;-83
2024/03/13 06:32:29;;;;;;;15.15;5.72;;;1.50;68.30;;;;;;4973412;28;20115;-86
2024/03/13 06:34:56;;;;;;;14.65;5.40;;;1.50;68.20;;;;;;4977272;28;20042;-85
2024/03/13 06:37:23;;;;;;;12.32;5.28;;;1.50;68.30;;;;;;4974645;28;20032;-84
2024/03/13 06:39:50;;;;;;;11.05;4.70;;;1.50;68.20;;;;;;4972952;28;20034;-85
2024/03/13 06:42:16;;;;;;;11.63;5.80;;;1.50;68.30;;;;;;4973889;28;20452;-85
2024/03/13 06:44:43;;;;;;;9.05;5.45;;;1.60;68.40;;;;;;4972948;28;20122;-82
2024/03/13 06:47:11;;;;;;;11.18;5.05;;;1.60;68.30;;;;;;4974691;28;20034;-85
2024/03/13 06:49:38;;;;;;;10.15;5.28;;;1.60;68.20;;;;;;4974661;28;20057;-84
2024/03/13 06:52:04;;;;;;;10.15;5.30;;;1.60;68.00;;;;;;4974986;28;20019;-85
2024/03/13 06:54:30;;;;;;;7.25;4.55;;;1.70;67.90;;;;;;4974729;28;20442;-85
2024/03/13 06:56:56;;;;;;;14.27;5.25;;;1.70;67.50;;;;;;4974226;28;20516;-85
2024/03/13 06:59:23;;;;;;;11.70;4.53;;;1.80;67.60;;;;;;4972262;28;20504;-84
2024/03/13 07:01:52;;;;;;;4.97;3.50;;;1.80;67.50;;;;;;4972819;28;20034;-84
2024/03/13 07:04:22;;;;;;;8.60;5.25;;;1.80;67.80;;;;;;4974429;28;20031;-83
2024/03/13 07:06:48;;;;;;;9.05;4.53;;;1.90;67.40;;;;;;4976158;28;20026;-85
2024/03/13 07:09:16;;;;;;;7.35;4.20;;;2.00;67.30;;;;;;4973347;28;20030;-85
2024/03/13 07:11:42;;;;;;;7.88;3.47;;;2.00;67.00;;;;;;4975505;28;20077;-84
2024/03/13 07:14:12;;;;;;;8.02;4.43;;;2.10;66.60;;;;;;4973003;28;20508;-84
2024/03/13 07:16:39;;;;;;;6.88;3.42;;;2.10;66.50;;;;;;4975733;28;20508;-85
2024/03/13 07:19:07;;;;;;;6.15;4.00;;;2.20;66.70;;;;;;4975288;28;20039;-85
2024/03/13 07:21:34;;;;;;;6.57;3.58;;;2.20;66.40;;;;;;4973312;28;20029;-84
2024/03/13 07:24:00;;;;;;;;;;;2.30;66.10;;;;;;4973108;28;20028;-84
2024/03/13 07:26:26;;;;;;;6.90;3.30;;;2.40;66.20;;;;;;4974216;28;19968;-86
2024/03/13 07:28:53;;;;;;;8.60;3.90;;;2.50;66.00;;;;;;4973501;28;20092;-84
2024/03/13 07:31:20;;;;;;;4.47;3.60;;;2.50;65.70;;;;;;4977397;28;20706;-83
2024/03/13 07:33:46;;;;;;;6.00;3.85;;;2.70;65.30;;;;;;4975308;28;20027;-87
2024/03/13 07:36:12;;;;;;;6.60;4.50;;;2.80;65.00;;;;;;4975702;28;20027;-84
2024/03/13 07:38:38;;;;;;;9.60;4.05;;;2.90;64.70;;;;;;4973546;28;20087;-85
2024/03/13 07:41:13;;;;;;;6.57;3.15;;;3.50;64.90;;;;;;4976594;28;20106;-84
2024/03/13 07:43:39;;;;;;;4.60;3.10;;;5.00;63.60;;;;;;4975432;28;20030;-85
2024/03/13 07:46:05;;;;;;;9.10;3.00;;;7.00;59.80;;;;;;4972809;28;20421;-87
2024/03/13 07:48:31;;;;;;;7.55;3.25;;;8.90;55.40;;;;;;4974027;28;20082;-87
2024/03/13 07:50:56;;;;;;;8.00;3.42;;;10.50;51.30;;;;;;4974022;28;20442;-86
2024/03/13 07:53:22;;;;;;;6.60;3.42;;;11.60;49.50;;;;;;4973336;28;20027;-86
2024/03/13 07:55:49;;;;;;;7.50;3.42;;;12.50;47.00;;;;;;4976468;28;20031;-85
2024/03/13 07:58:15;;;;;;;4.50;3.08;;;13.50;46.00;;;;;;4979495;28;20038;-86
2024/03/13 08:00:41;;;;;;;6.70;2.90;;;14.10;43.60;;;;;;4978441;28;20023;-84
2024/03/13 08:03:07;;;;;;;7.85;3.47;;;14.50;43.10;;;;;;4977277;28;20046;-86
2024/03/13 08:05:33;;;;;;;12.38;4.20;;;15.10;42.20;;;;;;4975762;28;20506;-85
2024/03/13 08:07:59;;;;;;;9.45;3.60;;;15.50;40.90;;;;;;4977227;28;20027;-86
2024/03/13 08:10:25;;;;;;;6.53;3.65;;;16.10;39.60;;;;;;4976838;28;20033;-87
2024/03/13 08:12:54;;;;;;;8.93;3.15;;;16.70;39.40;;;;;;4974901;28;20027;-87
2024/03/13 08:15:20;;;;;;;5.00;3.30;;;17.50;38.30;;;;;;4977323;28;20081;-88
2024/03/13 08:17:46;;;;;;;8.57;3.90;;;18.10;36.90;;;;;;4977068;28;20114;-87
2024/03/13 08:20:14;;;;;;;6.63;3.13;;;17.90;36.60;;;;;;4977468;28;20041;-85
2024/03/13 08:22:42;;;;;;;6.65;3.47;;;18.20;35.80;;;;;;4976806;28;20377;-84
2024/03/13 08:25:09;;;;;;;5.63;3.35;;;18.20;35.90;;;;;;4976234;28;20118;-87
2024/03/13 08:27:35;;;;;;;9.77;4.10;;;18.80;35.10;;;;;;4976607;28;20031;-86
2024/03/13 08:30:00;;;;;;;5.00;3.22;;;18.60;35.00;;;;;;4976452;28;20034;-88
2024/03/13 08:32:26;;;;;;;8.50;3.17;;;17.90;34.60;;;;;;4976818;28;20085;-88
2024/03/13 08:34:53;;;;;;;5.88;3.72;;;17.30;35.80;;;;;;4975477;28;20108;-87
2024/03/13 08:37:19;;;;;;;10.02;3.95;;;17.40;35.50;;;;;;4977676;28;20389;-87
2024/03/13 08:39:44;;;;;;;4.80;2.88;;;17.50;36.20;;;;;;4978594;28;20035;-89
2024/03/13 08:42:10;;;;;;;12.45;4.15;;;17.40;35.10;;;;;;4980213;28;20468;-85
2024/03/13 08:44:36;;;;;;;6.43;4.28;;;16.90;36.40;;;;;;4981705;28;20051;-90
2024/03/13 08:47:02;;;;;;;5.68;3.95;;;17.20;35.50;;;;;;4978175;28;20031;-86
2024/03/13 08:49:28;;;;;;;6.63;3.00;;;16.70;36.10;;;;;;4977162;28;20034;-87
2024/03/13 08:51:54;;;;;;;4.03;3.40;;;17.30;36.40;;;;;;4975299;28;20743;-87
2024/03/13 08:54:19;;;;;;;5.68;3.85;;;18.20;35.20;;;;;;4963363;28;20087;-88
2024/03/13 08:56:47;;;;;;;6.60;3.88;;;18.40;34.70;;;;;;4977324;28;20098;-87
2024/03/13 08:59:13;;;;;;;5.05;3.20;;;;;;;;;;4976361;28;20019;-87
2024/03/13 09:01:42;;;;;;;7.18;4.30;;;19.50;33.10;;;;;;4975969;28;20027;-88
2024/03/13 09:04:09;;;;;;;6.07;3.58;;;19.90;33.20;;;;;;4978729;28;20176;-88
2024/03/13 09:06:38;;;;;;;5.95;4.95;;;19.60;32.00;;;;;;4977396;28;20050;-87
2024/03/13 09:09:04;;;;;;;8.38;4.68;;;17.00;35.10;;;;;;4977088;28;20036;-86
2024/03/13 09:11:31;;;;;;;10.30;5.75;;;17.00;35.50;;;;;;4969136;28;20024;-85
2024/03/13 09:14:04;;;;;;;5.97;4.82;;;16.10;35.50;;;;;;4968391;28;20077;-86
2024/03/13 09:16:35;;;;;;;5.70;4.00;;;16.20;35.90;;;;;;4976187;28;20046;-85
2024/03/13 09:19:01;;;;;;;7.60;3.40;;;16.20;36.10;;;;;;4978817;28;20110;-90
2024/03/13 09:21:27;;;;;;;8.20;4.75;;;15.60;36.60;;;;;;4976780;28;20054;-91
2024/03/13 09:23:53;;;;;;;8.32;5.10;;;15.50;36.60;;;;;;4983837;28;20087;-88
2024/03/13 09:26:19;;;;;;;9.15;4.40;;;15.10;37.20;;;;;;4978389;28;20031;-86
2024/03/13 09:28:48;;;;;;;8.48;5.30;;;16.10;37.10;;;;;;4984211;28;20378;-88
2024/03/13 09:31:14;;;;;;;11.45;6.75;;;16.00;36.30;;;;;;4978734;28;20097;-86
2024/03/13 09:33:40;;;;;;;8.18;5.70;;;16.40;36.00;;;;;;4977430;28;20045;-89
2024/03/13 09:36:10;;;;;;;9.23;6.10;;;15.10;36.50;;;;;;4975452;28;20030;-88
2024/03/13 09:38:36;;;;;;;7.20;4.90;;;15.50;37.30;;;;;;4975988;28;20019;-87
2024/03/13 09:41:05;;;;;;;8.00;5.78;;;16.70;36.30;;;;;;4976259;28;20389;-89
2024/03/13 09:43:31;;;;;;;11.23;4.75;;;18.20;34.90;;;;;;4976981;28;20027;-89
2024/03/13 09:45:58;;;;;;;12.38;6.35;;;18.70;33.20;;;;;;4979151;28;20022;-89
2024/03/13 09:48:25;;;;;;;10.93;6.55;;;17.20;34.50;;;;;;4977959;28;20054;-88
2024/03/13 09:50:53;;;;;;;6.03;4.60;;;16.70;35.00;;;;;;4976212;28;20392;-88
2024/03/13 09:53:23;;;;;;;9.48;6.82;;;17.00;34.90;;;;;;4976043;28;20456;-88
2024/03/13 09:55:49;;;;;;;10.48;5.80;;;17.90;34.80;;;;;;4975219;28;20471;-86
2024/03/13 09:58:16;;;;;;;7.38;5.43;;;18.20;34.10;;;;;;4975518;28;20033;-88
2024/03/13 10:00:43;;;;;;;7.93;5.75;;;18.30;34.00;;;;;;4975484;28;20057;-88
2024/03/13 10:03:17;;;;;;;;;;;18.10;33.60;;;;;;4975712;28;20093;-87
2024/03/13 10:05:44;;;;;;;6.93;5.05;;;17.60;34.70;;;;;;4974272;28;20290;-86
2024/03/13 10:08:12;;;;;;;7.47;6.18;;;17.00;34.30;;;;;;4976090;28;20377;-89
2024/03/13 10:10:39;;;;;;;10.95;7.38;;;16.40;35.10;;;;;;4974042;28;20097;-89
2024/03/13 10:13:08;;;;;;;6.22;4.72;;;17.30;35.40;;;;;;4980480;28;20084;-88
2024/03/13 10:15:36;;;;;;;13.38;5.90;;;18.40;33.40;;;;;;4990715;28;20043;-88
2024/03/13 10:18:13;;;;;;;10.45;6.15;;;17.70;33.70;;;;;;4975317;28;20495;-88
2024/03/13 10:21:08;;;;;;;9.13;5.38;;;16.20;34.60;;;;;;4973994;28;20109;-87
2024/03/13 10:23:38;;;;;;;8.85;5.45;;;16.10;35.70;;;;;;4974995;28;20085;-87
2024/03/13 10:26:07;;;;;;;8.18;4.90;;;16.70;35.30;;;;;;4977322;28;20046;-88
2024/03/13 10:28:34;;;;;;;6.82;4.78;;;16.50;34.30;;;;;;4979191;28;20030;-90
2024/03/13 10:31:01;;;;;;;;;;;14.30;36.10;;;;;;4977689;28;20015;-87
2024/03/13 10:33:28;;;;;;;4.88;4.25;;;13.00;37.30;;;;;;4976507;28;19961;-86
2024/03/13 10:35:54;;;;;;;8.45;4.82;;;11.50;39.50;;;;;;4973873;28;20039;-88
2024/03/13 10:38:21;;;;;;;9.52;5.63;;;10.50;41.50;;;;;;4974979;28;20096;-88
2024/03/13 10:40:47;;;;;;;7.50;4.75;;;9.80;42.20;;;;;;4974998;28;20120;-87
2024/03/13 10:43:13;;;;;;;7.22;4.80;;;9.10;43.30;;;;;;4974112;28;20019;-86
2024/03/13 10:45:39;;;;;;;6.18;4.43;;;8.70;43.70;;;;;;4973684;28;20506;-86
2024/03/13 10:48:14;;;;;;;9.50;5.35;;;8.40;44.50;;;;;;4978169;28;20110;-86
2024/03/13 10:50:41;;;;;;;6.13;5.18;;;8.20;45.20;;;;;;4978640;28;20026;-85
2024/03/13 10:53:08;;;;;;;6.90;4.37;;;7.80;46.10;;;;;;4974653;28;20034;-88
2024/03/13 10:55:35;;;;;;;6.38;4.53;;;7.40;47.00;;;;;;4974198;28;20047;-85
2024/03/13 10:58:01;;;;;;;9.32;5.07;;;6.90;48.40;;;;;;4974476;28;20090;-84
2024/03/13 11:00:30;;;;;;;9.65;5.05;;;6.70;48.60;;;;;;4975298;28;20027;-86
2024/03/13 11:02:56;;;;;;;6.15;4.03;;;6.80;49.20;;;;;;4976815;28;20023;-86
2024/03/13 11:05:25;;;;;;;5.68;3.08;;;6.60;49.30;;;;;;4972780;28;20031;-87
2024/03/13 11:07:52;;;;;;;7.97;4.93;;;6.50;49.50;;;;;;4974040;28;20437;-85
2024/03/13 11:10:21;;;;;;;8.75;4.25;;;6.20;50.10;;;;;;4966105;28;20037;-87
2024/03/13 11:12:53;;;;;;;9.50;5.75;;;6.00;50.80;;;;;;4974281;28;20076;-87
2024/03/13 11:15:30;;;;;;;8.40;4.93;;;5.90;51.40;;;;;;4972573;28;20054;-88
2024/03/13 11:17:59;;;;;;;10.93;7.80;;;6.10;51.60;;;;;;4972586;28;20022;-87
2024/03/13 11:20:30;;;;;;;10.25;5.30;;;6.30;51.00;;;;;;4972637;28;20097;-86
2024/03/13 11:23:29;;;;;;;9.82;4.18;;;6.40;50.80;;;;;;4974922;28;20015;-85
2024/03/13 11:26:05;;;;;;;9.07;5.53;;;5.90;51.30;;;;;;4973795;28;20027;-86
2024/03/13 11:28:32;;;;;;;5.90;4.05;;;5.70;51.90;;;;;;4973968;28;20022;-88
2024/03/13 11:30:59;;;;;;;6.35;4.28;;;5.80;51.80;;;;;;4979936;28;20038;-86
2024/03/13 11:33:25;;;;;;;6.20;3.17;;;5.60;52.80;;;;;;4991647;28;20045;-86
2024/03/13 11:35:55;;;;;;;8.00;4.03;;;5.40;52.70;;;;;;4987207;28;20086;-85
2024/03/13 11:38:22;;;;;;;5.03;3.13;;;5.10;53.40;;;;;;4982857;28;20029;-88
2024/03/13 11:40:50;;;;;;;12.52;6.70;;;4.90;54.10;;;;;;4981800;28;20031;-88
2024/03/13 11:43:25;;;;;;;6.95;4.50;;;5.00;54.70;;;;;;4980464;28;20062;-85
2024/03/13 11:45:59;;;;;;;7.00;4.85;;;5.20;54.90;;;;;;4980676;28;20054;-86
2024/03/13 11:48:25;;;;;;;10.95;7.72;;;5.40;54.20;;;;;;4980267;28;20111;-85
2024/03/13 11:51:00;;;;;;;7.10;4.05;;;5.50;54.00;;;;;;4981156;28;20026;-86
2024/03/13 11:53:33;;;;;;;8.60;5.20;;;5.50;53.40;;;;;;4981572;28;20053;-85
2024/03/13 11:56:01;;;;;;;11.40;5.85;;;5.30;53.80;;;;;;4979790;28;20058;-86
2024/03/13 11:58:27;;;;;;;7.80;4.20;;;5.20;53.80;;;;;;4980585;28;20380;-85
2024/03/13 12:00:54;;;;;;;10.88;5.97;;;5.20;54.10;;;;;;4978919;28;20366;-86
2024/03/13 12:03:20;;;;;;;18.07;8.70;;;5.10;54.40;;;;;;4980029;28;20102;-85
2024/03/13 12:05:46;;;;;;;9.43;5.05;;;5.20;54.70;;;;;;4978550;28;20275;-87
2024/03/13 12:08:17;;;;;;;8.30;5.47;;;5.30;54.50;;;;;;4972290;28;20552;-85
2024/03/13 12:10:48;;;;;;;9.57;6.45;;;5.50;54.40;;;;;;4980606;28;20015;-83
2024/03/13 12:13:15;;;;;;;5.15;3.83;;;5.60;53.80;;;;;;4980881;28;20019;-84
2024/03/13 12:15:44;;;;;;;9.10;5.37;;;5.60;53.50;;;;;;4979844;28;20058;-86
2024/03/13 12:18:13;;;;;;;6.75;4.13;;;5.40;53.90;;;;;;4980715;28;20023;-86
2024/03/13 12:20:45;;;;;;;13.02;6.63;;;5.40;53.90;;;;;;4978862;28;20037;-84
2024/03/13 12:23:13;;;;;;;11.57;5.65;;;5.40;54.10;;;;;;4981475;28;20022;-84
2024/03/13 12:25:42;;;;;;;8.38;5.57;;;5.50;54.50;;;;;;4980118;28;20027;-85
2024/03/13 12:28:22;;;;;;;8.60;6.10;;;5.50;54.00;;;;;;4980343;28;20055;-83
2024/03/13 12:30:48;;;;;;;9.30;4.45;;;5.40;54.20;;;;;;4978893;28;20027;-85
2024/03/13 12:33:14;;;;;;;8.75;5.00;;;5.30;54.30;;;;;;4980353;28;20041;-86
2024/03/13 12:35:41;;;;;;;6.65;5.07;;;5.20;54.50;;;;;;4980733;28;20404;-86
2024/03/13 12:38:07;;;;;;;7.47;5.35;;;5.20;54.70;;;;;;4981585;28;20023;-87
2024/03/13 12:40:34;;;;;;;6.60;4.90;;;5.20;55.00;;;;;;4979865;28;20034;-86
2024/03/13 12:43:04;;;;;;;7.57;4.22;;;5.30;55.00;;;;;;4978746;28;20011;-85
2024/03/13 12:45:30;;;;;;;9.80;5.22;;;5.40;54.80;;;;;;4977376;28;20031;-86
2024/03/13 12:47:56;;;;;;;9.27;4.40;;;5.40;54.90;;;;;;4976770;28;20488;-86
2024/03/13 12:50:24;;;;;;;5.05;3.97;;;5.70;54.80;;;;;;4976821;28;20391;-86
2024/03/13 12:52:51;;;;;;;7.22;4.60;;;5.60;53.70;;;;;;4976966;28;20090;-85
2024/03/13 12:55:21;;;;;;;6.90;3.67;;;5.30;54.20;;;;;;4978076;28;20039;-84
2024/03/13 12:57:52;;;;;;;5.28;3.95;;;5.10;54.40;;;;;;4978658;28;20027;-84
2024/03/13 13:00:21;;;;;;;7.25;4.05;;;4.90;55.00;;;;;;4976383;28;20115;-84
2024/03/13 13:02:53;;;;;;;6.90;4.43;;;4.90;55.50;;;;;;4976114;28;20380;-86
2024/03/13 13:05:22;;;;;;;7.72;5.05;;;4.90;55.70;;;;;;4973874;28;20036;-85
2024/03/13 13:07:51;;;;;;;5.65;3.70;;;5.00;55.60;;;;;;4974848;28;20022;-86
2024/03/13 13:10:21;;;;;;;6.68;5.25;;;5.10;55.30;;;;;;4976258;28;20058;-86
2024/03/13 13:12:48;;;;;;;15.25;7.38;;;5.10;55.40;;;;;;4976216;28;20126;-85